Airport View

Enter AWOS ICAO identifier for current METAR.

ex. KFNL

KCQX 202352Z AUTO 00000KT 10SM CLR 16/13 A3012 RMK AO2 SLP201 T01560133 10228 20156 53005

21 Sep 2019 00:25

Frequency: 135.875

Phone: 508-945-5034

Other Area AWOS: KHYA - KFMH - KPVC - KACK

TAF KHYA 202320Z 2100/2124 24004KT P6SM FEW250 FM210600 27004KT P6SM FEW250 FM210900 30003KT P6SM SKC FM211400 33006KT P6SM SKC FM211900 29007KT P6SM SKC